Startpagina
METAR-TAF:

METAR-TAF

Vliegvelden :

Tahiti, Frans-Polynesië

breedte: 17-33S, lengte: 149-37W, hoogte: 2 m

Actueel weer

Dit bericht is 43 minuten geleden gemaakt, om 05:30 UTC
Wind 4 kt uit het oostnoordoosten, variërend tussen het noordnoordoosten en het oostzuidoosten
Temperatuur 27°C
Vochtigheid 70%
Druk 1014 hPa
Zicht 10 km of meer
Weinig wolken op 2300 ft
Verspreide wolken op 6000 ft
buien in de omgeving

METAR: NTAA 200530Z 06004KT 020V110 9999 VCSH FEW023 SCT060 27/21 Q1014 NOSIG

Tijdstip: 20:13 (06:13 UTC)

Verwachting

Dit bericht is 1 uur en het 13 minuten geleden gemaakt, om 05:00 UTC
Verwachting geldig van 20 om 06 UTC tot 21 om 12 UTC
Wind 5 kt uit variabele richting
Zicht 10 km of meer
Weinig wolken op 2000 ft
Wijzigt naar
van 20 om 18 UTC tot 20 om 20 UTC
Wind 15 kt uit het noordoosten

TAF: NTAA 200500Z 2006/2112 VRB05KT 9999 FEW020 BECMG 2018/2020 04015KT

Waarnemingen en weersverwachtingen van meer dan 4000 vliegvelden (METAR en TAF).

De beschikbare stations zijn de gele en rode punten op de kaart.

Ga met uw muis naar het station om de naam te zien.

Klik dan om waarnemingen en weersverwachtingen te zien.

kaart wijzigen: klik op de groene knoppen met een zwart kruis om in te zoomen, op de groene knop met een streepje om uit te zoomen of op de groene pijlen voor aangrenzende kaarten.


METAR-TAF: